KOMK/OMK METAR and TAF weather

Enter ICAO airport designator
Station Type Date Time Source
KOMK METAR 2022/08/16 17:53 UTC NOAA

KOMK 161753Z AUTO 36009KT 10SM CLR 31/08 A2999 RMK AO2 SLP146 T03110083 10311 20150 58005


Station Type Date Time Source
KOMK Decoded METAR 2022/08/16 17:53 UTC NOAA

OMAK AIRPORT, WA, United States (KOMK) 48-28N 119-31W 395M
Aug 16, 2022 - 01:53 PM EDT / 2022.08.16 1753 UTC
Wind: from the N (360 degrees) at 10 MPH (9 KT):0
Visibility: 10 mile(s):0
Sky conditions: clear
Temperature: 88.0 F (31.1 C)
Dew Point: 46.9 F (8.3 C)
Relative Humidity: 24%
Pressure (altimeter): 29.99 in. Hg (1015 hPa)
Pressure tendency: 0.01 inches (0.5 hPa) lower than three hours ago
ob: KOMK 161753Z AUTO 36009KT 10SM CLR 31/08 A2999 RMK AO2 SLP146 T03110083 10311 20150 58005
cycle: 18

Station Type Date Time Source
KOMK TAF UTC NOAA

Error!

Example: see airport list